createdAt,value
2022-11-14T00:00:58.973Z,101577.38
2022-11-14T00:03:46.306Z,101574.06
2022-11-14T00:06:35.038Z,101586.31
2022-11-14T00:09:26.333Z,101564.63
2022-11-14T00:12:13.835Z,101569.59
2022-11-14T00:15:00.705Z,101580.06
2022-11-14T00:17:47.506Z,101577.84
2022-11-14T00:20:34.762Z,101573.94
2022-11-14T00:23:23.331Z,101575.66
2022-11-14T00:26:10.305Z,101572.34
2022-11-14T00:28:57.489Z,101559.41
2022-11-14T00:31:44.665Z,101566.75
2022-11-14T00:34:31.961Z,101571.22
2022-11-14T00:37:19.204Z,101578.56
2022-11-14T00:40:08.967Z,101576.19
2022-11-14T00:42:56.010Z,101569.72
2022-11-14T00:45:44.539Z,101568.00
2022-11-14T00:48:31.899Z,101569.25
2022-11-14T00:51:19.016Z,101560.56
2022-11-14T00:54:06.240Z,101564.09
2022-11-14T00:56:54.526Z,101549.97
2022-11-14T00:59:41.654Z,101548.13
2022-11-14T01:02:28.760Z,101555.09
2022-11-14T01:05:15.862Z,101546.63
2022-11-14T01:08:02.792Z,101547.25
2022-11-14T01:10:52.025Z,101547.03
2022-11-14T01:13:41.154Z,101547.53
2022-11-14T01:16:28.253Z,101537.16
2022-11-14T01:19:15.119Z,101547.28
2022-11-14T01:22:06.293Z,101538.19
2022-11-14T01:24:55.215Z,101529.00
2022-11-14T01:27:42.147Z,101530.53
2022-11-14T01:30:30.405Z,101523.88
2022-11-14T01:33:17.542Z,101521.44
2022-11-14T01:36:04.766Z,101521.69
2022-11-14T01:38:53.742Z,101525.22
2022-11-14T01:41:41.113Z,101530.97
2022-11-14T01:44:46.426Z,101514.84
2022-11-14T01:47:34.858Z,101519.75
2022-11-14T01:50:21.785Z,101504.84
2022-11-14T01:53:08.547Z,101507.22
2022-11-14T01:55:57.835Z,101510.25
2022-11-14T01:58:48.410Z,101499.19
2022-11-14T02:01:38.574Z,101493.13
2022-11-14T02:04:29.678Z,101506.00
2022-11-14T02:07:16.931Z,101499.22
2022-11-14T02:10:09.776Z,101505.66
2022-11-14T02:12:56.764Z,101508.63
2022-11-14T02:15:44.128Z,101503.66
2022-11-14T02:18:31.498Z,101503.50
2022-11-14T02:21:20.250Z,101485.78
2022-11-14T02:24:10.594Z,101492.75
2022-11-14T02:26:57.538Z,101490.59
2022-11-14T02:29:44.684Z,101489.19
2022-11-14T02:32:45.029Z,101482.59
2022-11-14T02:35:38.726Z,101479.78
2022-11-14T02:38:27.291Z,101481.59
2022-11-14T02:41:14.352Z,101480.31
2022-11-14T02:44:01.211Z,101478.28
2022-11-14T02:46:48.350Z,101477.28
2022-11-14T02:49:35.808Z,101479.63
2022-11-14T02:52:22.984Z,101473.41
2022-11-14T02:55:11.785Z,101475.28
2022-11-14T02:57:58.943Z,101480.50
2022-11-14T03:01:13.714Z,101466.00
2022-11-14T03:03:53.292Z,101463.25
2022-11-14T03:06:40.107Z,101460.34
2022-11-14T03:09:27.143Z,101467.53
2022-11-14T03:12:18.991Z,101459.31
2022-11-14T03:15:07.224Z,101453.72
2022-11-14T03:17:54.366Z,101457.47
2022-11-14T03:20:41.489Z,101461.66
2022-11-14T03:23:28.677Z,101454.41
2022-11-14T03:26:16.590Z,101452.75
2022-11-14T03:29:04.453Z,101449.66
2022-11-14T03:31:51.326Z,101446.28
2022-11-14T03:34:38.605Z,101447.44
2022-11-14T03:37:25.740Z,101449.16
2022-11-14T03:40:13.485Z,101442.63
2022-11-14T03:43:00.863Z,101440.94
2022-11-14T03:45:50.003Z,101440.19
2022-11-14T03:48:37.554Z,101442.56
2022-11-14T03:51:24.684Z,101444.75
2022-11-14T03:54:11.572Z,101435.94
2022-11-14T03:56:58.624Z,101441.72
2022-11-14T03:59:45.679Z,101433.16
2022-11-14T04:02:34.101Z,101427.13
2022-11-14T04:05:21.001Z,101425.22
2022-11-14T04:08:08.566Z,101421.97
2022-11-14T04:10:55.448Z,101423.84
2022-11-14T04:13:42.517Z,101422.91
2022-11-14T04:16:29.743Z,101420.09
2022-11-14T04:19:17.814Z,101418.09
2022-11-14T04:22:04.658Z,101423.22
2022-11-14T04:24:51.705Z,101416.88
2022-11-14T04:27:38.822Z,101412.28
2022-11-14T04:30:25.623Z,101413.03
2022-11-14T04:33:13.264Z,101414.84
2022-11-14T04:36:01.779Z,101406.78
2022-11-14T04:38:48.524Z,101412.66
2022-11-14T04:41:35.252Z,101405.31
2022-11-14T04:44:22.077Z,101412.78
2022-11-14T04:47:08.693Z,101407.22
2022-11-14T04:49:55.498Z,101399.78
2022-11-14T04:52:43.703Z,101398.75
2022-11-14T04:55:30.715Z,101391.81
2022-11-14T04:58:17.622Z,101393.50
2022-11-14T05:01:09.312Z,101391.34
2022-11-14T05:03:57.056Z,101402.31
2022-11-14T05:06:44.204Z,101393.50
2022-11-14T05:09:32.698Z,101388.97
2022-11-14T05:12:20.086Z,101400.63
2022-11-14T05:15:08.229Z,101391.13
2022-11-14T05:17:55.313Z,101390.03
2022-11-14T05:20:42.428Z,101398.66
2022-11-14T05:23:29.444Z,101402.47
2022-11-14T05:26:19.178Z,101400.50
2022-11-14T05:29:05.877Z,101391.13
2022-11-14T05:31:53.067Z,101392.78
2022-11-14T05:34:39.950Z,101388.00
2022-11-14T05:37:27.059Z,101390.88
2022-11-14T05:40:13.924Z,101389.56
2022-11-14T05:43:02.299Z,101387.66
2022-11-14T05:45:49.394Z,101383.41
2022-11-14T05:48:36.288Z,101390.03
2022-11-14T05:51:23.036Z,101384.63
2022-11-14T05:54:09.951Z,101385.25
2022-11-14T05:56:56.807Z,101381.13
2022-11-14T05:59:45.528Z,101397.22
2022-11-14T06:02:32.773Z,101390.38
2022-11-14T06:05:20.233Z,101390.03
2022-11-14T06:08:06.772Z,101384.38
2022-11-14T06:10:53.949Z,101395.19
2022-11-14T06:13:41.096Z,101387.38
2022-11-14T06:16:29.460Z,101388.97
2022-11-14T06:19:16.340Z,101394.72
2022-11-14T06:22:03.353Z,101406.97
2022-11-14T06:24:50.125Z,101396.66
2022-11-14T06:27:37.056Z,101400.00
2022-11-14T06:30:24.041Z,101398.31
2022-11-14T06:33:12.166Z,101398.09
2022-11-14T06:36:00.192Z,101398.81
2022-11-14T06:38:47.479Z,101399.13
2022-11-14T06:41:35.654Z,101392.31
2022-11-14T06:44:27.843Z,101393.63
2022-11-14T06:47:17.313Z,101400.38
2022-11-14T06:50:06.580Z,101407.63
2022-11-14T06:52:53.918Z,101411.47
2022-11-14T06:55:40.643Z,101419.88
2022-11-14T06:58:28.969Z,101412.78
2022-11-14T07:01:17.873Z,101416.41
2022-11-14T07:04:04.966Z,101424.06
2022-11-14T07:06:53.812Z,101423.22
2022-11-14T07:09:40.950Z,101431.44
2022-11-14T07:12:29.560Z,101424.13
2022-11-14T07:15:16.617Z,101422.88
2022-11-14T07:18:03.721Z,101410.13
2022-11-14T07:20:51.002Z,101408.00
2022-11-14T07:23:39.455Z,101408.94
2022-11-14T07:26:26.950Z,101403.97
2022-11-14T07:29:13.332Z,101408.97
2022-11-14T07:32:00.383Z,101402.78
2022-11-14T07:34:47.686Z,101401.47
2022-11-14T07:37:35.061Z,101399.34
2022-11-14T07:40:23.531Z,101399.75
2022-11-14T07:43:10.312Z,101401.53
2022-11-14T07:46:00.637Z,101398.34
2022-11-14T07:48:47.289Z,101385.09
2022-11-14T07:51:34.771Z,101392.66
2022-11-14T07:54:21.521Z,101393.16
2022-11-14T07:57:09.709Z,101394.22
2022-11-14T07:59:56.690Z,101381.00
2022-11-14T08:02:43.527Z,101393.81
2022-11-14T08:05:30.455Z,101390.78
2022-11-14T08:08:17.380Z,101401.91
2022-11-14T08:11:04.185Z,101395.38
2022-11-14T08:13:52.645Z,101383.22
2022-11-14T08:16:39.731Z,101379.91
2022-11-14T08:19:26.472Z,101381.22
2022-11-14T08:22:13.446Z,101386.78
2022-11-14T08:25:00.362Z,101381.66
2022-11-14T08:27:47.378Z,101376.94
2022-11-14T08:30:36.139Z,101368.47
2022-11-14T08:33:23.426Z,101367.41
2022-11-14T08:36:11.762Z,101362.22
2022-11-14T08:39:01.836Z,101358.06
2022-11-14T08:41:49.438Z,101364.59
2022-11-14T08:44:36.522Z,101367.31
2022-11-14T08:47:25.097Z,101356.69
2022-11-14T08:50:11.776Z,101355.75
2022-11-14T08:52:58.846Z,101352.66
2022-11-14T08:55:46.022Z,101347.47
2022-11-14T08:58:33.905Z,101353.78
2022-11-14T09:01:20.841Z,101352.72
2022-11-14T09:04:09.298Z,101355.47
2022-11-14T09:06:56.623Z,101355.47
2022-11-14T09:09:44.309Z,101358.72
2022-11-14T09:12:31.178Z,101338.81
2022-11-14T09:15:17.996Z,101332.25
2022-11-14T09:18:05.378Z,101352.31
2022-11-14T09:20:53.849Z,101338.00
2022-11-14T09:23:40.674Z,101336.44
2022-11-14T09:26:27.561Z,101327.44
2022-11-14T09:29:14.575Z,101324.81
2022-11-14T09:32:01.383Z,101324.41
2022-11-14T09:34:48.454Z,101324.91
2022-11-14T09:37:36.911Z,101315.41
2022-11-14T09:40:24.049Z,101307.63
2022-11-14T09:43:21.068Z,101322.91
2022-11-14T09:46:17.584Z,101313.13
2022-11-14T09:49:04.619Z,101310.94
2022-11-14T09:51:55.657Z,101306.50
2022-11-14T09:54:48.163Z,101313.16
2022-11-14T09:57:35.796Z,101304.44
2022-11-14T10:00:24.581Z,101312.88
2022-11-14T10:03:17.878Z,101302.63
2022-11-14T10:06:15.911Z,101304.84
2022-11-14T10:09:30.156Z,101298.75
2022-11-14T10:12:23.980Z,101292.00
2022-11-14T10:15:16.889Z,101306.53
2022-11-14T10:18:22.184Z,101302.47
2022-11-14T10:21:20.527Z,101302.53
2022-11-14T10:24:18.300Z,101295.88
2022-11-14T10:27:07.149Z,101292.97
2022-11-14T10:30:05.919Z,101270.50
2022-11-14T10:33:03.095Z,101277.13
2022-11-14T10:35:54.619Z,101272.56
2022-11-14T10:38:45.661Z,101271.19
2022-11-14T10:41:56.214Z,101270.13
2022-11-14T10:44:43.668Z,101268.41
2022-11-14T10:47:37.318Z,101269.19
2022-11-14T10:50:25.964Z,101279.50
2022-11-14T10:53:20.108Z,101269.84
2022-11-14T10:56:07.261Z,101266.53
2022-11-14T10:58:54.163Z,101254.44
2022-11-14T11:01:43.026Z,101243.69
2022-11-14T11:04:33.147Z,101234.50
2022-11-14T11:07:40.685Z,101241.97
2022-11-14T11:10:45.484Z,101231.16
2022-11-14T11:13:34.905Z,101236.81
2022-11-14T11:16:24.071Z,101226.78
2022-11-14T11:19:24.823Z,101231.13
2022-11-14T11:22:29.130Z,101239.06
2022-11-14T11:25:25.153Z,101217.56
2022-11-14T11:28:14.868Z,101210.38
2022-11-14T11:31:02.896Z,101213.41
2022-11-14T11:33:50.209Z,101219.88
2022-11-14T11:36:42.279Z,101206.97
2022-11-14T11:39:31.885Z,101202.16
2022-11-14T11:42:23.630Z,101188.13
2022-11-14T11:45:17.544Z,101189.13
2022-11-14T11:48:11.587Z,101182.97
2022-11-14T11:50:58.909Z,101197.34
2022-11-14T11:53:58.153Z,101195.16
2022-11-14T11:56:48.773Z,101195.97
2022-11-14T11:59:39.170Z,101185.84
2022-11-14T12:02:27.962Z,101176.34
2022-11-14T12:05:16.802Z,101167.94
2022-11-14T12:08:07.534Z,101174.59
2022-11-14T12:10:55.651Z,101171.66
2022-11-14T12:14:04.916Z,101180.19
2022-11-14T12:17:06.397Z,101178.97
2022-11-14T12:20:14.056Z,101184.50
2022-11-14T12:23:28.110Z,101180.03
2022-11-14T12:26:26.509Z,101177.13
2022-11-14T12:29:32.576Z,101176.56
2022-11-14T12:32:31.512Z,101200.53
2022-11-14T12:35:22.478Z,101196.13
2022-11-14T12:38:17.730Z,101188.72
2022-11-14T12:41:04.908Z,101183.19
2022-11-14T12:43:52.370Z,101186.19
2022-11-14T12:47:14.511Z,101193.53
2022-11-14T12:50:30.074Z,101183.66
2022-11-14T12:53:39.441Z,101183.44
2022-11-14T12:56:55.941Z,101175.38
2022-11-14T12:59:54.821Z,101189.19
2022-11-14T13:03:06.045Z,101180.75
2022-11-14T13:05:58.531Z,101183.41
2022-11-14T13:09:03.047Z,101174.13
2022-11-14T13:12:07.510Z,101182.59
2022-11-14T13:15:13.405Z,101172.75
2022-11-14T13:18:28.310Z,101173.31
2022-11-14T13:21:44.738Z,101185.75
2022-11-14T13:25:02.516Z,101169.00
2022-11-14T13:28:07.216Z,101180.97
2022-11-14T13:31:18.159Z,101177.66
2022-11-14T13:34:20.587Z,101165.16
2022-11-14T13:37:20.323Z,101155.28
2022-11-14T13:40:13.177Z,101170.81
2022-11-14T13:43:09.215Z,101166.22
2022-11-14T13:46:03.272Z,101163.22
2022-11-14T13:49:05.128Z,101159.00
2022-11-14T13:51:54.092Z,101161.63
2022-11-14T13:54:49.304Z,101154.31
2022-11-14T13:57:45.323Z,101149.22
2022-11-14T14:00:49.360Z,101151.44
2022-11-14T14:03:43.153Z,101157.41
2022-11-14T14:06:40.923Z,101155.31
2022-11-14T14:09:34.375Z,101140.28
2022-11-14T14:12:42.184Z,101146.06
2022-11-14T14:15:32.414Z,101137.63
2022-11-14T14:18:22.285Z,101134.03
2022-11-14T14:21:17.811Z,101135.25
2022-11-14T14:24:12.362Z,101126.91
2022-11-14T14:27:05.023Z,101140.88
2022-11-14T14:29:59.945Z,101123.81
2022-11-14T14:33:12.282Z,101128.97
2022-11-14T14:35:59.246Z,101126.00
2022-11-14T14:38:46.561Z,101113.56
2022-11-14T14:41:34.605Z,101100.50
2022-11-14T14:44:25.382Z,101110.09
2022-11-14T14:47:32.469Z,101108.59
2022-11-14T14:50:21.687Z,101105.78
2022-11-14T14:53:18.855Z,101103.66
2022-11-14T14:56:08.899Z,101104.41
2022-11-14T14:58:56.133Z,101099.22
2022-11-14T15:01:42.891Z,101095.19
2022-11-14T15:04:31.761Z,101095.44
2022-11-14T15:07:21.824Z,101099.06
2022-11-14T15:10:09.916Z,101108.16
2022-11-14T15:12:57.509Z,101093.16
2022-11-14T15:15:45.029Z,101095.19
2022-11-14T15:18:33.589Z,101081.69
2022-11-14T15:21:28.416Z,101081.44
2022-11-14T15:24:17.259Z,101076.66
2022-11-14T15:27:05.780Z,101070.00
2022-11-14T15:29:54.869Z,101071.59
2022-11-14T15:32:49.490Z,101064.47
2022-11-14T15:35:38.058Z,101069.13
2022-11-14T15:38:43.683Z,101055.72
2022-11-14T15:41:31.980Z,101057.00
2022-11-14T15:44:32.088Z,101054.78
2022-11-14T15:47:23.858Z,101057.22
2022-11-14T15:50:27.893Z,101051.81
2022-11-14T15:53:24.377Z,101047.00
2022-11-14T15:56:14.487Z,101042.56
2022-11-14T15:59:02.557Z,101039.31
2022-11-14T16:01:52.477Z,101038.53
2022-11-14T16:04:46.003Z,101051.94
2022-11-14T16:07:34.602Z,101056.91
2022-11-14T16:10:25.358Z,101047.16
2022-11-14T16:13:13.579Z,101039.44
2022-11-14T16:16:00.902Z,101041.31
2022-11-14T16:18:48.095Z,101031.94
2022-11-14T16:21:35.546Z,101022.25
2022-11-14T16:24:24.338Z,101019.91
2022-11-14T16:27:11.458Z,101014.16
2022-11-14T16:29:59.727Z,101016.56
2022-11-14T16:32:47.980Z,101014.69
2022-11-14T16:35:34.877Z,101012.56
2022-11-14T16:38:22.008Z,101000.66
2022-11-14T16:41:09.033Z,101005.31
2022-11-14T16:43:56.800Z,101011.56
2022-11-14T16:46:45.853Z,101012.41
2022-11-14T16:49:32.978Z,101001.66
2022-11-14T16:52:20.173Z,101021.06
2022-11-14T16:55:08.205Z,101007.72
2022-11-14T16:57:55.432Z,101007.31
2022-11-14T17:00:43.944Z,101000.31
2022-11-14T17:03:34.204Z,101006.28
2022-11-14T17:06:21.462Z,101013.63
2022-11-14T17:09:08.884Z,101003.88
2022-11-14T17:11:55.769Z,100998.91
2022-11-14T17:14:42.643Z,100999.94
2022-11-14T17:17:29.968Z,100996.91
2022-11-14T17:20:18.655Z,100994.88
2022-11-14T17:23:05.551Z,100989.66
2022-11-14T17:25:53.491Z,100989.44
2022-11-14T17:28:43.206Z,100985.84
2022-11-14T17:31:35.038Z,100975.28
2022-11-14T17:34:24.773Z,100981.53
2022-11-14T17:37:13.431Z,100971.19
2022-11-14T17:40:00.356Z,100969.28
2022-11-14T17:42:47.387Z,100969.75
2022-11-14T17:45:37.885Z,100961.91
2022-11-14T17:48:27.975Z,100956.72
2022-11-14T17:51:16.353Z,100958.19
2022-11-14T17:54:05.011Z,100975.88
2022-11-14T17:56:54.920Z,100964.47
2022-11-14T17:59:42.419Z,100957.25
2022-11-14T18:02:29.667Z,100966.63
2022-11-14T18:05:17.366Z,100958.69
2022-11-14T18:08:04.228Z,100973.66
2022-11-14T18:10:53.360Z,100952.44
2022-11-14T18:13:41.301Z,100957.00
2022-11-14T18:16:44.470Z,100954.75
2022-11-14T18:19:36.822Z,100951.16
2022-11-14T18:22:24.287Z,100957.16
2022-11-14T18:25:11.329Z,100952.34
2022-11-14T18:27:59.616Z,100950.28
2022-11-14T18:30:55.513Z,100947.78
2022-11-14T18:33:42.943Z,100936.13
2022-11-14T18:36:30.052Z,100933.84
2022-11-14T18:39:17.087Z,100931.97
2022-11-14T18:42:03.912Z,100939.13
2022-11-14T18:44:52.133Z,100940.22
2022-11-14T18:47:39.064Z,100936.50
2022-11-14T18:50:26.163Z,100937.09
2022-11-14T18:53:12.748Z,100924.94
2022-11-14T18:55:59.877Z,100922.91
2022-11-14T18:58:47.276Z,100924.38
2022-11-14T19:01:36.072Z,100912.69
2022-11-14T19:04:23.606Z,100910.34
2022-11-14T19:07:11.056Z,100912.44
2022-11-14T19:09:58.477Z,100907.03
2022-11-14T19:12:48.278Z,100916.28
2022-11-14T19:15:35.654Z,100923.41
2022-11-14T19:18:24.045Z,100916.91
2022-11-14T19:21:11.786Z,100915.84
2022-11-14T19:23:59.608Z,100905.03
2022-11-14T19:26:47.018Z,100901.97
2022-11-14T19:29:34.007Z,100897.97
2022-11-14T19:32:21.316Z,100901.75
2022-11-14T19:35:13.614Z,100894.91
2022-11-14T19:38:02.920Z,100890.41
2022-11-14T19:40:51.186Z,100891.69
2022-11-14T19:43:38.606Z,100892.19
2022-11-14T19:46:27.360Z,100892.28
2022-11-14T19:49:14.246Z,100899.53
2022-11-14T19:52:03.062Z,100895.31
2022-11-14T19:54:51.675Z,100880.56
2022-11-14T19:57:38.801Z,100874.25
2022-11-14T20:00:26.038Z,100872.72
2022-11-14T20:03:13.401Z,100867.91
2022-11-14T20:06:00.503Z,100868.19
2022-11-14T20:08:49.357Z,100854.47
2022-11-14T20:11:36.240Z,100862.00
2022-11-14T20:14:23.068Z,100860.00
2022-11-14T20:17:09.976Z,100873.72
2022-11-14T20:19:56.827Z,100861.19
2022-11-14T20:22:45.872Z,100872.50
2022-11-14T20:25:36.386Z,100858.94
2022-11-14T20:28:23.535Z,100852.88
2022-11-14T20:31:13.212Z,100852.13
2022-11-14T20:33:59.985Z,100845.53
2022-11-14T20:37:09.780Z,100835.75
2022-11-14T20:39:54.128Z,100847.81
2022-11-14T20:42:42.786Z,100829.75
2022-11-14T20:45:29.887Z,100821.00
2022-11-14T20:48:16.760Z,100821.50
2022-11-14T20:51:04.776Z,100828.09
2022-11-14T20:53:53.185Z,100821.50
2022-11-14T20:56:40.075Z,100815.88
2022-11-14T20:59:28.183Z,100810.25
2022-11-14T21:02:15.977Z,100813.97
2022-11-14T21:05:03.579Z,100803.03
2022-11-14T21:07:50.626Z,100810.03
2022-11-14T21:10:47.801Z,100795.28
2022-11-14T21:13:53.435Z,100790.69
2022-11-14T21:16:42.056Z,100784.34
2022-11-14T21:19:29.788Z,100798.13
2022-11-14T21:22:17.015Z,100816.09
2022-11-14T21:25:04.617Z,100800.59
2022-11-14T21:27:51.386Z,100807.47
2022-11-14T21:30:38.193Z,100791.28
2022-11-14T21:33:26.705Z,100790.72
2022-11-14T21:36:43.392Z,100783.59
2022-11-14T21:39:25.672Z,100788.31
2022-11-14T21:42:18.051Z,100785.06
2022-11-14T21:45:06.114Z,100786.41
2022-11-14T21:47:53.116Z,100779.78
2022-11-14T21:50:41.635Z,100777.84
2022-11-14T21:53:29.095Z,100777.50
2022-11-14T21:56:17.945Z,100781.09
2022-11-14T21:59:16.951Z,100776.28
2022-11-14T22:02:21.724Z,100769.81
2022-11-14T22:05:09.222Z,100770.28
2022-11-14T22:07:57.798Z,100771.25
2022-11-14T22:10:44.880Z,100775.53
2022-11-14T22:13:32.679Z,100761.69
2022-11-14T22:16:20.868Z,100756.41
2022-11-14T22:19:08.073Z,100758.91
2022-11-14T22:21:55.303Z,100757.53
2022-11-14T22:24:43.954Z,100755.53
2022-11-14T22:27:30.796Z,100756.41
2022-11-14T22:30:17.765Z,100753.94
2022-11-14T22:33:04.836Z,100748.41
2022-11-14T22:35:51.952Z,100747.00
2022-11-14T22:38:39.390Z,100745.31
2022-11-14T22:41:32.192Z,100740.81
2022-11-14T22:44:19.919Z,100743.44
2022-11-14T22:47:07.036Z,100744.03
2022-11-14T22:49:53.727Z,100742.84
2022-11-14T22:52:40.436Z,100729.19
2022-11-14T22:55:27.284Z,100732.59
2022-11-14T22:58:15.362Z,100722.03
2022-11-14T23:01:02.587Z,100727.13
2022-11-14T23:03:52.148Z,100717.84
2022-11-14T23:06:39.200Z,100720.22
2022-11-14T23:09:27.239Z,100711.50
2022-11-14T23:12:14.107Z,100706.13
2022-11-14T23:15:02.430Z,100708.34
2022-11-14T23:17:49.528Z,100697.47
2022-11-14T23:20:37.122Z,100709.66
2022-11-14T23:23:23.860Z,100699.31
2022-11-14T23:26:11.687Z,100706.97
2022-11-14T23:28:58.581Z,100696.75
2022-11-14T23:31:46.828Z,100700.97
2022-11-14T23:34:33.838Z,100692.47
2022-11-14T23:37:20.922Z,100694.00
2022-11-14T23:40:09.068Z,100685.59
2022-11-14T23:42:55.942Z,100693.81
2022-11-14T23:45:43.671Z,100696.66
2022-11-14T23:48:32.180Z,100693.31
2022-11-14T23:51:19.325Z,100687.41
2022-11-14T23:54:06.197Z,100675.66
2022-11-14T23:56:53.167Z,100676.34
2022-11-14T23:59:40.145Z,100668.66
